Meteo Giornale » Osservazioni meteo Stati Uniti (USA) » Aurora Buckley

ore: 14:58 - Osservazioni Meteo Aurora Buckley
Lat. 39° 42' N Lon. 104° 45' W Alt. 1726 metri s.l.m.

nuvoloso

30 °C

Nuvoloso

Temp. 24 Ore

15 °C

30 °C

Sud

11.1 Km/h

Dew point 4 °C

Umidità 19 %

Visibilità  10 Km

Il sole sorge alle ore 06:27

Il sole tramonta alle ore 19:30

Data e Ora Cielo e Fenomeni T °C DP °C Um. % Pres. hPa Vis. km Vento km/h
Oggi h: 14:58 nuvoloso Nuvoloso 30 4 19 1018 10 S 11.1
Oggi h: 13:58 nuvoloso Nuvoloso 30 3 17 1019 10 S 14.8
Oggi h: 12:58 nuvoloso Nuvoloso 28 7 26 1020 10 SE 16.7
Oggi h: 11:58 nuvoloso Nuvoloso 25 7 31 1021 10 N 5.5
Oggi h: 10:58 nuvoloso Nuvoloso 24 10 41 1021 10 S/SE 9.3
Oggi h: 09:58 molto_nuvoloso Molto Nuvoloso 22 12 53 1021 10 S/SO 14.8
Oggi h: 08:58 molto_nuvoloso Molto Nuvoloso 18 13 72 1021 10 O/SO 7.4
Oggi h: 07:58 molto_nuvoloso Molto Nuvoloso 18 12 67 1020 10 N 0
Oggi h: 06:58 molto_nuvoloso Molto Nuvoloso 15 12 82 1020 10 N 0
Oggi h: 05:58 molto_nuvoloso Molto Nuvoloso 16 12 77 1020 10 S/SO 14.8
Oggi h: 04:58 molto_nuvoloso Molto Nuvoloso 16 12 77 1020 10 S 9.3
Oggi h: 03:58 molto_nuvoloso Molto Nuvoloso 16 13 82 1020 10 S/SO 13
Oggi h: 02:58 nuvoloso Nuvoloso 16 13 82 1021 10 S 11.1
Oggi h: 01:58 nuvoloso Nuvoloso 16 14 87 1021 10 S 13
Oggi h: 00:58 nuvoloso Nuvoloso 16 13 82 1022 10 N 0
Ieri h: 23:58 nuvoloso Nuvoloso 17 14 82 1022 10 S 13
Ieri h: 22:58 nuvoloso Nuvoloso 17 14 82 1021 10 SO 9.3
Ieri h: 21:58 molto_nuvoloso Molto Nuvoloso 17 15 88 1021 10 N 0
Ieri h: 21:30 molto_nuvoloso Molto Nuvoloso 17 15 88 1022 10 O 9.3
Ieri h: 20:58 coperto_pioggia Pioggia 18 14 77 1022 10 O 14.8
Ieri h: 20:26 coperto_pioggia Pioggia 21 12 56 1022 10 O/SO 40.7
Ieri h: 19:58 molto_nuvoloso Molto Nuvoloso 24 8 35 1020 10 N 14.8
Ieri h: 18:58 molto_nuvoloso Molto Nuvoloso 27 6 26 1019 10 E 20.3
Ieri h: 17:58 molto_nuvoloso Molto Nuvoloso 28 6 24 1019 10 E 22.2
Ieri h: 16:58 molto_nuvoloso Molto Nuvoloso 30 5 20 1019 10 E/SE 18.5